createdAt,value
2019-03-16T00:00:50.011Z,24.88
2019-03-16T00:03:24.066Z,24.89
2019-03-16T00:05:58.409Z,24.86
2019-03-16T00:08:32.554Z,24.88
2019-03-16T00:11:07.124Z,24.85
2019-03-16T00:13:41.143Z,24.86
2019-03-16T00:16:15.404Z,24.85
2019-03-16T00:18:49.566Z,24.83
2019-03-16T00:21:23.757Z,24.84
2019-03-16T00:23:57.745Z,24.83
2019-03-16T00:26:32.339Z,24.82
2019-03-16T00:29:06.788Z,24.83
2019-03-16T00:31:40.995Z,24.82
2019-03-16T00:34:15.284Z,24.81
2019-03-16T00:36:49.500Z,24.81
2019-03-16T00:39:23.642Z,24.80
2019-03-16T00:41:57.945Z,24.77
2019-03-16T00:44:32.212Z,24.78
2019-03-16T00:47:06.507Z,24.78
2019-03-16T00:49:40.755Z,24.76
2019-03-16T00:52:14.922Z,24.74
2019-03-16T00:54:49.237Z,24.74
2019-03-16T00:57:23.235Z,24.74
2019-03-16T00:59:57.650Z,24.73
2019-03-16T01:02:33.002Z,24.73
2019-03-16T01:05:07.897Z,24.71
2019-03-16T01:07:42.001Z,24.71
2019-03-16T01:10:16.309Z,24.70
2019-03-16T01:12:50.331Z,24.69
2019-03-16T01:15:24.694Z,24.69
2019-03-16T01:17:59.111Z,24.67
2019-03-16T01:20:33.196Z,24.68
2019-03-16T01:23:07.398Z,24.67
2019-03-16T01:25:41.764Z,24.66
2019-03-16T01:28:16.143Z,24.65
2019-03-16T01:30:50.740Z,24.65
2019-03-16T01:33:24.697Z,24.63
2019-03-16T01:35:59.096Z,24.64
2019-03-16T01:38:33.296Z,24.63
2019-03-16T01:41:07.597Z,24.63
2019-03-16T01:43:41.784Z,24.62
2019-03-16T01:46:15.940Z,24.60
2019-03-16T01:48:50.204Z,24.60
2019-03-16T01:51:24.510Z,24.59
2019-03-16T01:53:59.105Z,24.58
2019-03-16T01:56:33.459Z,24.58
2019-03-16T01:59:07.502Z,24.57
2019-03-16T02:01:42.162Z,24.58
2019-03-16T02:04:16.549Z,24.58
2019-03-16T02:06:50.983Z,24.56
2019-03-16T02:09:24.987Z,24.55
2019-03-16T02:12:00.575Z,24.53
2019-03-16T02:14:34.922Z,24.53
2019-03-16T02:17:09.301Z,24.51
2019-03-16T02:19:43.458Z,24.51
2019-03-16T02:22:17.360Z,24.50
2019-03-16T02:24:51.208Z,24.50
2019-03-16T02:27:25.202Z,24.49
2019-03-16T02:29:59.215Z,24.48
2019-03-16T02:32:33.632Z,24.47
2019-03-16T02:35:08.414Z,24.47
2019-03-16T02:37:42.969Z,24.46
2019-03-16T02:40:17.292Z,24.45
2019-03-16T02:42:51.821Z,24.44
2019-03-16T02:45:26.142Z,24.44
2019-03-16T02:48:00.489Z,24.43
2019-03-16T02:50:34.613Z,24.41
2019-03-16T02:53:09.408Z,24.41
2019-03-16T02:55:43.472Z,24.40
2019-03-16T02:58:17.853Z,24.40
2019-03-16T03:00:52.079Z,24.40
2019-03-16T03:03:29.678Z,24.40
2019-03-16T03:06:02.178Z,24.39
2019-03-16T03:08:36.521Z,24.39
2019-03-16T03:11:10.622Z,24.37
2019-03-16T03:13:44.931Z,24.37
2019-03-16T03:16:19.500Z,24.36
2019-03-16T03:18:53.866Z,24.36
2019-03-16T03:21:28.023Z,24.36
2019-03-16T03:24:02.218Z,24.35
2019-03-16T03:26:36.237Z,24.36
2019-03-16T03:29:10.395Z,24.35
2019-03-16T03:31:44.474Z,24.36
2019-03-16T03:34:18.779Z,24.29
2019-03-16T03:36:53.026Z,24.21
2019-03-16T03:39:27.447Z,24.18
2019-03-16T03:42:01.860Z,24.15
2019-03-16T03:44:36.109Z,24.13
2019-03-16T03:47:10.538Z,24.10
2019-03-16T03:49:44.954Z,24.10
2019-03-16T03:52:19.272Z,24.07
2019-03-16T03:54:53.999Z,24.06
2019-03-16T03:57:28.425Z,24.05
2019-03-16T04:00:02.737Z,24.03
2019-03-16T04:02:37.528Z,24.03
2019-03-16T04:05:12.224Z,24.02
2019-03-16T04:07:46.846Z,24.01
2019-03-16T04:10:21.150Z,24.00
2019-03-16T04:12:55.520Z,23.98
2019-03-16T04:15:30.013Z,23.98
2019-03-16T04:18:04.051Z,23.96
2019-03-16T04:20:38.405Z,23.95
2019-03-16T04:23:13.458Z,23.96
2019-03-16T04:25:47.673Z,23.94
2019-03-16T04:28:21.880Z,23.93
2019-03-16T04:30:56.137Z,23.93
2019-03-16T04:33:30.416Z,23.91
2019-03-16T04:36:05.021Z,23.91
2019-03-16T04:38:38.999Z,23.90
2019-03-16T04:41:13.441Z,23.89
2019-03-16T04:43:47.754Z,23.89
2019-03-16T04:46:22.443Z,24.04
2019-03-16T04:48:56.480Z,24.10
2019-03-16T04:51:32.098Z,24.12
2019-03-16T04:54:06.267Z,24.14
2019-03-16T04:56:40.710Z,24.14
2019-03-16T04:59:15.191Z,24.05
2019-03-16T05:01:49.557Z,24.05
2019-03-16T05:04:23.676Z,24.10
2019-03-16T05:06:57.997Z,24.08
2019-03-16T05:09:32.234Z,24.07
2019-03-16T05:12:06.666Z,24.06
2019-03-16T05:14:41.141Z,24.06
2019-03-16T05:17:15.348Z,24.06
2019-03-16T05:19:49.839Z,24.04
2019-03-16T05:22:24.252Z,24.04
2019-03-16T05:24:58.701Z,24.03
2019-03-16T05:27:32.993Z,24.04
2019-03-16T05:30:07.954Z,24.03
2019-03-16T05:32:42.228Z,24.04
2019-03-16T05:35:16.640Z,24.03
2019-03-16T05:37:50.993Z,24.02
2019-03-16T05:40:25.289Z,24.02
2019-03-16T05:42:59.685Z,24.00
2019-03-16T05:45:34.000Z,24.02
2019-03-16T05:48:08.526Z,24.02
2019-03-16T05:50:42.905Z,24.02
2019-03-16T05:53:16.938Z,24.02
2019-03-16T05:55:51.200Z,24.02
2019-03-16T05:58:25.417Z,24.03
2019-03-16T06:00:59.727Z,24.04
2019-03-16T06:03:33.906Z,24.01
2019-03-16T06:06:08.175Z,24.01
2019-03-16T06:08:42.258Z,24.02
2019-03-16T06:11:16.613Z,24.04
2019-03-16T06:13:51.067Z,24.04
2019-03-16T06:16:25.287Z,24.06
2019-03-16T06:19:00.309Z,24.07
2019-03-16T06:21:34.501Z,24.07
2019-03-16T06:24:08.780Z,24.07
2019-03-16T06:26:43.138Z,24.06
2019-03-16T06:29:17.202Z,24.06
2019-03-16T06:31:51.436Z,24.08
2019-03-16T06:34:25.855Z,24.09
2019-03-16T06:37:00.009Z,24.12
2019-03-16T06:39:34.544Z,24.12
2019-03-16T10:35:55.153Z,24.23
2019-03-16T10:38:29.128Z,24.66
2019-03-16T10:41:02.666Z,24.68
2019-03-16T10:43:35.449Z,24.68
2019-03-16T10:46:08.581Z,24.67
2019-03-16T10:48:41.177Z,24.69
2019-03-16T10:51:13.650Z,24.70
2019-03-16T10:53:46.268Z,24.71
2019-03-16T10:56:18.709Z,24.73
2019-03-16T10:58:56.483Z,24.74
2019-03-16T11:01:25.508Z,24.75
2019-03-16T11:03:58.039Z,24.75
2019-03-16T11:06:30.593Z,24.76
2019-03-16T11:09:03.656Z,24.77
2019-03-16T11:11:37.079Z,24.78
2019-03-16T11:14:09.741Z,24.78
2019-03-16T11:16:42.964Z,24.79
2019-03-16T11:19:15.567Z,24.81
2019-03-16T11:21:50.588Z,24.82
2019-03-16T11:24:23.425Z,24.81
2019-03-16T11:26:56.876Z,24.84
2019-03-16T11:29:29.511Z,24.84
2019-03-16T11:32:02.895Z,24.85
2019-03-16T11:34:35.848Z,24.86
2019-03-16T11:37:09.392Z,24.88
2019-03-16T11:39:42.322Z,24.88
2019-03-16T11:42:15.477Z,24.90
2019-03-16T11:44:48.273Z,24.91
2019-03-16T11:47:21.113Z,24.90
2019-03-16T11:49:54.025Z,24.90
2019-03-16T11:52:27.410Z,24.93
2019-03-16T11:54:59.930Z,24.93
2019-03-16T11:57:32.309Z,24.96
2019-03-16T12:00:05.661Z,24.97
2019-03-16T12:02:38.048Z,24.98
2019-03-16T12:05:11.089Z,24.99
2019-03-16T12:07:43.692Z,25.00
2019-03-16T12:10:16.501Z,25.00
2019-03-16T12:12:49.285Z,25.01
2019-03-16T12:15:21.957Z,25.01
2019-03-16T12:17:54.969Z,25.05
2019-03-16T12:20:27.980Z,25.03
2019-03-16T12:23:00.375Z,25.03
2019-03-16T12:25:33.261Z,25.03
2019-03-16T12:28:05.951Z,25.04
2019-03-16T12:30:39.789Z,25.06
2019-03-16T12:33:13.408Z,25.07
2019-03-16T12:35:46.540Z,25.11
2019-03-16T12:38:20.515Z,25.13
2019-03-16T12:40:53.685Z,25.13
2019-03-16T12:43:28.987Z,25.12
2019-03-16T12:46:01.924Z,25.14
2019-03-16T12:48:35.025Z,25.17
2019-03-16T12:51:07.903Z,25.20
2019-03-16T12:53:40.830Z,25.17
2019-03-16T12:56:14.168Z,25.12
2019-03-16T12:58:46.915Z,25.14
2019-03-16T13:01:19.367Z,25.17
2019-03-16T13:03:51.893Z,25.10
2019-03-16T13:06:24.354Z,24.89
2019-03-16T13:08:57.096Z,24.86
2019-03-16T13:11:29.699Z,24.81
2019-03-16T13:14:02.519Z,24.84
2019-03-16T13:16:37.132Z,24.76
2019-03-16T13:19:12.067Z,24.71
2019-03-16T13:21:43.975Z,24.69
2019-03-16T13:24:16.879Z,24.68
2019-03-16T13:26:49.467Z,24.66
2019-03-16T13:29:22.487Z,24.67
2019-03-16T13:31:55.555Z,24.70
2019-03-16T13:34:29.244Z,24.81
2019-03-16T13:37:02.655Z,24.81
2019-03-16T13:39:36.451Z,24.79
2019-03-16T13:42:08.833Z,24.71
2019-03-16T13:44:41.460Z,24.66
2019-03-16T13:47:13.840Z,24.65
2019-03-16T13:49:46.336Z,24.61
2019-03-16T13:52:28.086Z,24.72
2019-03-16T13:55:00.508Z,24.80
2019-03-16T13:57:33.534Z,24.76
2019-03-16T14:00:11.768Z,24.71
2019-03-16T14:02:40.080Z,24.70
2019-03-16T14:05:12.507Z,24.68
2019-03-16T14:07:45.368Z,24.69
2019-03-16T14:10:18.404Z,25.21
2019-03-16T14:12:50.873Z,25.20
2019-03-16T14:15:23.373Z,25.03
2019-03-16T14:17:58.113Z,24.91
2019-03-16T14:20:29.940Z,24.84
2019-03-16T14:23:02.614Z,24.80
2019-03-16T14:25:35.234Z,24.77
2019-03-16T14:28:07.486Z,24.75
2019-03-16T14:30:41.695Z,24.73
2019-03-16T14:33:14.326Z,24.73
2019-03-16T14:35:47.183Z,24.72
2019-03-16T14:38:19.801Z,24.73
2019-03-16T14:40:52.201Z,24.73
2019-03-16T14:43:24.653Z,24.75
2019-03-16T14:45:57.157Z,24.74
2019-03-16T14:48:29.645Z,24.74
2019-03-16T14:51:02.202Z,24.74
2019-03-16T14:53:34.537Z,24.73
2019-03-16T14:56:07.232Z,24.73
2019-03-16T14:58:39.754Z,24.73
2019-03-16T15:01:13.294Z,24.73
2019-03-16T15:03:48.826Z,24.72
2019-03-16T15:06:21.130Z,24.74
2019-03-16T15:08:53.591Z,24.72
2019-03-16T15:11:27.147Z,24.73
2019-03-16T15:13:59.637Z,24.73
2019-03-16T15:16:32.332Z,24.73
2019-03-16T15:19:04.636Z,24.72
2019-03-16T15:21:37.382Z,24.72
2019-03-16T15:24:09.825Z,24.74
2019-03-16T15:26:42.414Z,24.73
2019-03-16T15:29:14.860Z,24.74
2019-03-16T15:31:47.782Z,24.73
2019-03-16T15:34:20.236Z,24.72
2019-03-16T15:36:52.851Z,25.12
2019-03-16T15:39:25.313Z,25.28
2019-03-16T15:41:57.644Z,25.34
2019-03-16T15:44:30.070Z,25.35
2019-03-16T15:47:02.583Z,25.38
2019-03-16T15:49:35.054Z,25.41
2019-03-16T15:52:07.662Z,25.44
2019-03-16T15:54:40.189Z,25.45
2019-03-16T15:57:12.871Z,25.45
2019-03-16T15:59:46.773Z,25.55
2019-03-16T16:02:21.195Z,25.59
2019-03-16T16:04:55.521Z,25.51
2019-03-16T16:07:30.216Z,25.49
2019-03-16T16:10:04.460Z,25.49
2019-03-16T16:12:38.734Z,25.54
2019-03-16T16:15:13.363Z,25.57
2019-03-16T16:17:47.663Z,25.60
2019-03-16T16:20:22.252Z,25.59
2019-03-16T16:22:56.410Z,25.59
2019-03-16T16:25:30.623Z,25.59
2019-03-16T16:28:04.870Z,25.62
2019-03-16T16:30:39.181Z,25.64
2019-03-16T16:33:13.548Z,25.64
2019-03-16T16:35:47.829Z,25.67
2019-03-16T16:38:22.205Z,25.67
2019-03-16T16:40:56.357Z,25.70
2019-03-16T16:43:30.375Z,25.69
2019-03-16T16:46:05.880Z,25.64
2019-03-16T16:48:39.955Z,25.70
2019-03-16T16:51:13.875Z,25.67
2019-03-16T16:53:48.102Z,25.66
2019-03-16T16:56:22.170Z,25.68
2019-03-16T16:58:56.579Z,25.69
2019-03-16T17:01:30.799Z,25.68
2019-03-16T17:04:05.105Z,25.68
2019-03-16T17:06:39.429Z,25.70
2019-03-16T17:09:13.580Z,25.72
2019-03-16T17:11:47.933Z,25.70
2019-03-16T17:14:22.031Z,25.71
2019-03-16T17:16:58.559Z,25.69
2019-03-16T17:19:32.313Z,25.72
2019-03-16T17:22:06.865Z,25.71
2019-03-16T17:24:41.193Z,25.72
2019-03-16T17:27:16.400Z,25.70
2019-03-16T17:29:50.501Z,25.72
2019-03-16T17:32:24.931Z,25.72
2019-03-16T17:34:59.207Z,25.74
2019-03-16T17:37:33.836Z,25.70
2019-03-16T17:40:08.251Z,25.73
2019-03-16T17:42:43.189Z,25.79
2019-03-16T17:45:17.499Z,25.83
2019-03-16T17:47:51.608Z,25.84
2019-03-16T17:50:25.728Z,25.80
2019-03-16T17:53:00.344Z,25.79
2019-03-16T17:55:34.643Z,25.79
2019-03-16T17:58:09.188Z,25.82
2019-03-16T18:00:43.311Z,25.83
2019-03-16T18:03:17.952Z,25.84
2019-03-16T18:05:52.277Z,25.86
2019-03-16T18:08:26.537Z,25.87
2019-03-16T18:11:00.514Z,25.87
2019-03-16T18:13:35.549Z,25.86
2019-03-16T18:16:09.801Z,25.88
2019-03-16T18:18:44.321Z,25.91
2019-03-16T18:21:18.441Z,25.91
2019-03-16T18:23:52.943Z,25.89
2019-03-16T18:26:27.199Z,25.90
2019-03-16T18:29:01.492Z,25.90
2019-03-16T18:31:35.599Z,25.89
2019-03-16T18:34:09.844Z,25.90
2019-03-16T18:36:44.034Z,25.90
2019-03-16T18:39:18.234Z,25.83
2019-03-16T18:41:52.580Z,25.77
2019-03-16T18:44:26.451Z,25.78
2019-03-16T18:47:00.506Z,25.78
2019-03-16T18:49:34.742Z,25.77
2019-03-16T18:52:08.754Z,25.75
2019-03-16T18:54:42.781Z,25.72
2019-03-16T18:57:16.934Z,25.72
2019-03-16T18:59:51.246Z,25.71
2019-03-16T19:02:25.759Z,25.70
2019-03-16T19:05:00.017Z,25.70
2019-03-16T19:07:34.461Z,25.70
2019-03-16T19:10:09.620Z,25.68
2019-03-16T19:12:44.252Z,25.66
2019-03-16T19:15:18.599Z,25.66
2019-03-16T19:17:58.486Z,25.66
2019-03-16T19:20:28.792Z,25.66
2019-03-16T19:23:03.183Z,25.64
2019-03-16T19:25:37.380Z,25.63
2019-03-16T19:28:11.842Z,25.62
2019-03-16T19:30:46.200Z,25.63
2019-03-16T19:33:20.378Z,25.61
2019-03-16T19:35:54.647Z,25.61
2019-03-16T19:38:28.801Z,25.60
2019-03-16T19:41:03.164Z,25.62
2019-03-16T19:43:37.268Z,25.63
2019-03-16T19:46:11.562Z,25.62
2019-03-16T19:48:45.725Z,25.61
2019-03-16T19:51:20.589Z,25.59
2019-03-16T19:53:54.813Z,25.58
2019-03-16T19:56:29.533Z,25.56
2019-03-16T19:59:03.868Z,25.58
2019-03-16T20:01:38.262Z,25.60
2019-03-16T20:04:12.495Z,25.60
2019-03-16T20:06:46.631Z,25.57
2019-03-16T20:09:20.820Z,25.58
2019-03-16T20:11:55.102Z,25.57
2019-03-16T20:14:29.098Z,25.56
2019-03-16T20:17:03.349Z,25.56
2019-03-16T20:19:37.288Z,25.54
2019-03-16T20:22:12.389Z,25.55
2019-03-16T20:24:46.550Z,25.54
2019-03-16T20:27:20.868Z,25.53
2019-03-16T20:29:54.867Z,25.52
2019-03-16T20:32:29.038Z,25.52
2019-03-16T20:35:03.113Z,25.52
2019-03-16T20:37:37.153Z,25.51
2019-03-16T20:40:12.266Z,25.51
2019-03-16T20:42:46.483Z,25.49
2019-03-16T20:45:20.883Z,25.48
2019-03-16T20:47:55.127Z,25.48
2019-03-16T20:50:29.319Z,25.47
2019-03-16T20:53:03.403Z,25.46
2019-03-16T20:55:37.599Z,25.47
2019-03-16T20:58:11.807Z,25.45
2019-03-16T21:00:46.033Z,25.48
2019-03-16T21:03:20.332Z,25.46
2019-03-16T21:05:54.620Z,25.44
2019-03-16T21:08:28.926Z,25.45
2019-03-16T21:11:03.129Z,25.46
2019-03-16T21:13:37.244Z,25.44
2019-03-16T21:16:11.330Z,25.40
2019-03-16T21:18:45.489Z,25.39
2019-03-16T21:21:19.709Z,25.38
2019-03-16T21:23:53.996Z,25.39
2019-03-16T21:26:27.931Z,25.38
2019-03-16T21:29:02.045Z,25.39
2019-03-16T21:31:36.185Z,25.36
2019-03-16T21:34:10.428Z,25.36
2019-03-16T21:36:44.572Z,25.35
2019-03-16T21:39:18.827Z,25.35
2019-03-16T21:41:52.861Z,25.35
2019-03-16T21:44:26.947Z,25.34
2019-03-16T21:47:01.149Z,25.34
2019-03-16T21:49:35.426Z,25.32
2019-03-16T21:52:09.780Z,25.34
2019-03-16T21:54:43.884Z,25.33
2019-03-16T21:57:18.096Z,25.34
2019-03-16T21:59:52.159Z,25.33
2019-03-16T22:02:26.357Z,25.31
2019-03-16T22:05:00.584Z,25.30
2019-03-16T22:07:34.705Z,25.30
2019-03-16T22:10:09.160Z,25.31
2019-03-16T22:12:43.369Z,25.29
2019-03-16T22:15:17.679Z,25.30
2019-03-16T22:17:51.888Z,25.29
2019-03-16T22:20:26.077Z,25.28
2019-03-16T22:23:00.430Z,25.27
2019-03-16T22:25:34.725Z,25.26
2019-03-16T22:28:10.291Z,25.27
2019-03-16T22:30:45.157Z,25.26
2019-03-16T22:33:19.702Z,25.24
2019-03-16T22:35:53.831Z,25.24
2019-03-16T22:38:28.259Z,25.24
2019-03-16T22:41:02.505Z,25.23
2019-03-16T22:43:37.226Z,25.23
2019-03-16T22:46:11.301Z,25.23
2019-03-16T22:48:45.716Z,25.22
2019-03-16T22:51:19.953Z,25.22
2019-03-16T22:53:54.311Z,25.20
2019-03-16T22:56:28.569Z,25.22
2019-03-16T22:59:03.047Z,25.22
2019-03-16T23:01:37.335Z,25.21
2019-03-16T23:04:12.079Z,25.20
2019-03-16T23:06:46.263Z,25.20
2019-03-16T23:09:20.589Z,25.20
2019-03-16T23:11:54.906Z,25.21
2019-03-16T23:14:29.065Z,25.20
2019-03-16T23:17:03.254Z,25.19
2019-03-16T23:19:37.543Z,25.17
2019-03-16T23:22:11.677Z,25.17
2019-03-16T23:24:45.950Z,25.16
2019-03-16T23:27:20.187Z,25.14
2019-03-16T23:29:54.585Z,25.14
2019-03-16T23:32:29.714Z,25.13
2019-03-16T23:35:04.112Z,25.14
2019-03-16T23:37:38.345Z,25.11
2019-03-16T23:40:12.931Z,25.10
2019-03-16T23:42:47.486Z,25.10
2019-03-16T23:45:21.873Z,25.08
2019-03-16T23:47:56.998Z,25.08
2019-03-16T23:50:31.289Z,25.08
2019-03-16T23:53:05.477Z,25.10
2019-03-16T23:55:39.703Z,25.08
2019-03-16T23:58:13.879Z,25.07
